Latest Weather Observations for Blackall

IDQ60801

Issued at 12:05 pm EST Tuesday 23 September 2014 (issued every 30 minutes, with the page automatically refreshed every 10 minutes)

About weather observations | Map of weather stations | Latest weather observations for QLD | Other Formats
Station Details ID: 036034 Name: BLACKALL AIRPORT Lat: -24.43 Lon: 145.43 Height: 281.3 m
Data from the previous 72 hours. | See also: Recent months at Blackall
Date/Time
EST
Temp
°C
App
Temp
°C
Dew
Point
Rel
Hum
%
Delta-T
°C
Wind Press
QNH
hPa
Press
MSL
hPa
Rain
since 9 am
mm
Dir
 
Spd
km/h
Gust
km/h
Spd
kts
Gust
kts
23/12:00pm 22.6 18.3 12.0 51 6.0 ENE 26 39 14 21 1021.3 1020.3 0.0
23/11:30am 21.6 17.2 11.6 53 5.6 ENE 26 39 14 21 1022.0 1021.0 0.0
23/11:00am 21.4 17.2 12.3 56 5.2 NE 26 37 14 20 1022.6 1021.6 0.0
23/10:30am 20.4 14.9 11.9 58 4.8 NE 32 43 17 23 1022.8 1021.8 0.0
23/10:00am 20.5 15.0 12.0 58 4.8 ENE 32 39 17 21 1022.9 1021.9 0.0
23/09:30am 19.7 14.5 11.7 60 4.5 ENE 30 41 16 22 1023.2 1022.2 0.0
23/09:00am 19.0 14.3 12.0 64 3.9 NE 28 41 15 22 1023.1 1022.1 0.0
23/08:30am 18.2 12.9 11.3 64 3.8 NE 30 41 16 22 1023.0 1022.0 0.0
23/08:00am 17.4 12.1 11.4 68 3.3 ENE 30 39 16 21 1022.6 1021.6 0.0
23/07:30am 17.6 14.1 12.1 70 3.1 ENE 22 30 12 16 1022.4 1021.4 0.0
23/07:00am 16.4 13.2 11.8 74 2.5 ENE 20 30 11 16 1022.1 1021.1 0.0
23/06:30am 16.1 13.0 11.7 75 2.4 ENE 19 24 10 13 1021.8 1020.7 0.0
23/06:00am 15.9 12.8 11.7 76 2.3 E 19 24 10 13 1021.2 1020.2 0.0
23/05:30am 16.0 13.0 11.8 76 2.3 ENE 19 24 10 13 1021.4 1020.4 0.0
23/05:00am 16.1 12.5 11.7 75 2.4 NE 22 32 12 17 1021.4 1020.4 0.0
23/04:30am 16.1 13.0 11.7 75 2.4 ENE 19 24 10 13 1021.2 1020.2 0.0
23/04:00am 16.1 12.8 11.5 74 2.5 ENE 20 33 11 18 1021.0 1020.0 0.0
23/03:30am 16.0 12.6 11.4 74 2.5 ENE 20 28 11 15 1020.8 1019.8 0.0
23/03:00am 16.0 11.9 11.4 74 2.5 ENE 24 33 13 18 1020.9 1019.9 0.0
23/02:30am 16.1 13.6 11.1 72 2.7 ENE 15 24 8 13 1021.1 1020.1 0.0
23/02:00am 16.1 12.9 11.1 72 2.7 ENE 19 26 10 14 1021.0 1020.0 0.0
23/01:30am 16.1 11.9 11.1 72 2.7 ENE 24 32 13 17 1021.2 1020.2 0.0
23/01:00am 16.0 11.3 10.7 71 2.8 ENE 26 35 14 19 1021.5 1020.5 0.0
23/12:30am 16.1 11.9 11.1 72 2.7 ENE 24 32 13 17 1021.7 1020.6 0.0
23/12:00am 16.0 12.5 11.0 72 2.7 ENE 20 28 11 15 1022.0 1021.0 0.0
 
Date/Time
EST
Temp
°C
App
Temp
°C
Dew
Point
Rel
Hum
%
Delta-T
°C
Wind Press
QNH
hPa
Press
MSL
hPa
Rain
since 9 am
mm
Dir
 
Spd
km/h
Gust
km/h
Spd
kts
Gust
kts
22/11:30pm 16.1 11.8 10.6 70 3.0 E 24 32 13 17 1022.3 1021.3 0.0
22/11:00pm 15.8 11.5 10.8 72 2.7 E 24 32 13 17 1022.5 1021.5 0.0
22/10:30pm 15.5 11.1 10.5 72 2.7 E 24 35 13 19 1022.9 1021.9 0.0
22/10:00pm 15.8 10.2 10.3 70 2.9 E 30 39 16 21 1022.8 1021.8 0.0
22/09:30pm 16.2 10.6 10.3 68 3.2 E 30 41 16 22 1022.7 1021.7 0.0
22/09:00pm 16.7 12.9 11.0 69 3.1 E 22 37 12 20 1022.6 1021.6 0.0
22/08:30pm 17.3 13.8 10.9 66 3.5 ENE 20 28 11 15 1022.3 1021.3 0.0
22/08:00pm 18.0 12.3 11.1 64 3.8 ENE 32 41 17 22 1021.9 1020.9 0.0
22/07:30pm 17.8 12.8 10.9 64 3.8 ENE 28 39 15 21 1021.2 1020.2 0.0
22/07:00pm 17.9 13.3 11.0 64 3.8 ENE 26 35 14 19 1020.8 1019.8 0.0
22/06:30pm 18.7 13.3 10.8 60 4.3 ENE 30 37 16 20 1020.4 1019.4 0.0
22/06:00pm 19.8 14.4 10.8 56 5.0 E 30 39 16 21 1019.7 1018.7 0.0
22/05:30pm 21.1 16.4 10.6 51 5.8 ENE 26 32 14 17 1019.2 1018.2 0.0
22/05:00pm 21.7 17.7 10.5 49 6.2 ENE 22 32 12 17 1019.0 1018.0 0.0
22/04:30pm 22.3 18.0 10.8 48 6.4 ENE 24 33 13 18 1018.8 1017.8 0.0
22/04:00pm 21.8 16.7 10.6 49 6.2 ENE 28 37 15 20 1018.6 1017.5 0.0
22/03:30pm 23.1 18.5 10.9 46 6.9 ENE 26 39 14 21 1018.6 1017.5 0.0
22/03:00pm 21.5 16.8 10.6 50 6.0 E 26 39 14 21 1019.0 1018.0 0.0
22/02:30pm 22.4 17.5 11.2 49 6.3 ENE 28 32 15 17 1019.2 1018.2 0.0
22/02:00pm 22.2 17.3 11.3 50 6.1 ENE 28 41 15 22 1019.5 1018.5 0.0
22/01:30pm 22.4 16.7 11.2 49 6.3 E 32 44 17 24 1019.7 1018.7 0.0
22/01:00pm 23.0 17.7 11.4 48 6.6 NE 30 43 16 23 1020.0 1019.0 0.0
22/12:30pm 22.2 17.5 11.9 52 5.9 ENE 28 39 15 21 1020.2 1019.2 0.0
22/12:00pm 21.9 16.9 12.2 54 5.5 ENE 30 41 16 22 1020.6 1019.6 0.0
22/11:30am 21.7 17.3 11.7 53 5.7 NE 26 37 14 20 1021.0 1020.0 0.0
22/11:00am 20.1 14.8 11.3 57 4.9 ENE 30 37 16 20 1021.5 1020.5 0.0
22/10:30am 20.7 16.0 12.1 58 4.9 NE 28 37 15 20 1021.8 1020.7 0.0
22/10:00am 20.2 15.7 11.4 57 4.9 ENE 26 33 14 18 1021.7 1020.6 0.0
22/09:30am 19.8 15.8 11.8 60 4.5 ENE 24 32 13 17 1021.9 1020.9 0.0
22/09:00am 18.6 14.3 12.1 66 3.6 E 26 33 14 18 1021.8 1020.7 12.8
22/08:30am 17.8 12.7 12.0 69 3.2 ENE 30 39 16 21 1021.4 1020.4 12.8
22/08:00am 16.2 11.4 11.6 74 2.5 E 28 39 15 21 1020.9 1019.9 12.8
22/07:30am 15.2 11.4 11.2 77 2.2 E 22 35 12 19 1020.9 1019.9 12.8
22/07:00am 14.6 10.7 10.8 78 2.0 E 22 32 12 17 1020.7 1019.7 12.8
22/06:30am 14.4 10.4 10.4 77 2.1 E 22 30 12 16 1020.3 1019.3 12.8
22/06:00am 14.2 10.7 10.2 77 2.1 ENE 19 28 10 15 1020.0 1019.0 12.8
22/05:30am 14.6 10.1 10.2 75 2.3 ENE 24 35 13 19 1019.6 1018.6 12.8
22/05:00am 14.3 8.3 10.7 79 1.9 ENE 33 44 18 24 1018.8 1017.8 12.8
22/04:30am 13.9 8.2 11.2 84 1.5 ENE 32 41 17 22 1018.7 1017.6 12.8
22/04:00am 13.8 10.7 11.5 86 1.2 E 19 28 10 15 1019.6 1018.6 12.8
22/03:30am 13.6 10.9 11.7 88 1.0 ESE 17 22 9 12 1019.9 1018.9 12.8
22/03:00am 13.9 11.4 11.2 84 1.4 ESE 15 19 8 10 1020.0 1019.0 12.6
22/02:30am 13.9 10.5 11.4 85 1.3 ENE 20 28 11 15 1020.0 1019.0 12.6
22/02:00am 13.7 11.0 11.7 88 1.1 ENE 17 22 9 12 1020.4 1019.4 12.6
22/01:30am 13.6 10.4 11.8 89 1.0 ENE 20 30 11 16 1020.7 1019.7 12.6
22/01:00am 13.7 10.8 12.3 91 0.8 E 19 24 10 13 1021.0 1020.0 12.6
22/12:30am 13.7 10.7 12.6 93 0.6 E 20 30 11 16 1020.7 1019.7 12.6
22/12:00am 13.8 8.5 13.0 95 0.4 E 33 44 18 24 1021.1 1020.1 12.2
 
Date/Time
EST
Temp
°C
App
Temp
°C
Dew
Point
Rel
Hum
%
Delta-T
°C
Wind Press
QNH
hPa
Press
MSL
hPa
Rain
since 9 am
mm
Dir
 
Spd
km/h
Gust
km/h
Spd
kts
Gust
kts
21/11:30pm 13.8 10.1 12.7 93 0.6 ENE 24 33 13 18 1022.0 1021.0 11.4
21/11:00pm 13.9 10.5 12.6 92 0.7 ENE 22 30 12 16 1022.2 1021.2 11.0
21/10:30pm 14.0 11.0 12.7 92 0.7 E 20 26 11 14 1022.0 1021.0 10.6
21/10:00pm 14.2 12.2 12.6 90 0.9 ENE 15 20 8 11 1022.6 1021.6 9.8
21/09:30pm 14.5 13.1 13.4 93 0.6 ESE 13 17 7 9 1022.2 1021.2 9.2
21/09:00pm 14.8 14.5 12.7 87 1.2 S 6 11 3 6 1022.6 1021.6 7.6
21/08:30pm 14.9 13.2 12.6 86 1.3 SE 13 19 7 10 1021.4 1020.4 7.4
21/08:00pm 15.3 12.2 12.1 81 1.8 SSE 20 33 11 18 1020.6 1019.6 7.4
21/07:30pm 14.4 9.6 13.0 91 0.8 SE 30 39 16 21 1019.1 1018.1 7.4
21/07:23pm 14.6 10.3 13.3 92 0.7 ESE 28 33 15 18 1019.7 1018.7 6.8
21/07:00pm 15.1 14.5 12.4 84 1.5 W 7 15 4 8 1021.3 1020.3 4.8
21/06:30pm 15.4 12.0 12.5 83 1.6 SW 22 33 12 18 1020.0 1019.0 3.0
21/06:00pm 15.6 13.5 12.5 82 1.7 S 15 19 8 10 1019.5 1018.5 1.6
21/05:30pm 16.5 14.6 11.9 74 2.5 SE 13 17 7 9 1018.6 1017.5 1.0
21/05:00pm 17.0 16.1 12.7 76 2.4 SSE 9 13 5 7 1018.3 1017.2 0.6
21/04:30pm 16.1 12.3 11.1 72 2.7 S 22 30 12 16 1017.5 1016.5 0.6
21/04:02pm 15.5 10.2 9.8 69 3.0 SSW 28 39 15 21 1018.4 1017.3 0.2
21/04:00pm 16.0 8.4 9.2 64 3.6 S 39 67 21 36 1018.4 1017.3 0.2
21/03:56pm 18.8 10.2 8.2 50 5.5 SSE 43 67 23 36 1017.3 1016.3 0.2
21/03:37pm 21.4 14.9 8.3 43 7.0 N 32 50 17 27 1016.2 1015.2 0.0
21/03:34pm 20.8 13.0 8.4 45 6.6 N 39 54 21 29 1016.8 1015.8 0.0
21/03:30pm 23.9 19.4 10.2 42 7.6 NNE 24 35 13 19 1016.5 1015.5 0.0
21/03:00pm 24.6 20.6 10.5 41 7.9 NE 22 33 12 18 1016.7 1015.7 0.0
21/02:30pm 25.3 20.9 10.4 39 8.4 NE 24 37 13 20 1017.1 1016.1 0.0
21/02:00pm 24.8 19.6 8.7 36 8.8 NE 26 37 14 20 1017.5 1016.5 0.0
21/01:30pm 25.2 20.0 11.7 43 7.8 NNE 30 43 16 23 1018.1 1017.0 0.0
21/01:00pm 25.4 20.6 10.4 39 8.4 NNE 26 33 14 18 1019.1 1018.1 0.0
21/12:30pm 25.4 20.9 10.1 38 8.6 NNE 24 32 13 17 1019.4 1018.4 0.0
21/12:00pm 24.9 19.3 8.8 36 8.8 NNE 28 39 15 21 1019.7 1018.7 0.0
21/11:30am 24.6 21.1 7.3 33 9.2 N 15 24 8 13 1020.2 1019.2 0.0
21/11:00am 24.1 21.3 8.5 37 8.4 NW 13 20 7 11 1020.6 1019.6 0.0
21/10:30am 21.7 18.3 9.3 45 6.7 N 17 26 9 14 1021.1 1020.1 0.0
21/10:00am 20.3 18.0 10.4 53 5.4 NNE 13 19 7 10 1021.4 1020.4 0.0
21/09:30am 19.1 17.1 10.1 56 4.9 NE 11 15 6 8 1021.1 1020.1 0.0
21/09:00am 18.7 15.4 9.5 55 4.9 NE 17 24 9 13 1021.3 1020.3 0.0
21/08:30am 18.9 16.0 8.3 50 5.5 NNE 13 17 7 9 1021.1 1020.1 0.0
21/08:00am 18.7 14.9 3.7 37 7.1 NNE 13 17 7 9 1021.3 1020.3 0.0
21/07:30am 18.3 14.0 1.3 32 7.7 NE 13 20 7 11 1020.4 1019.4 0.0
21/07:00am 18.0 15.2 -0.3 29 8.0 ENE 4 9 2 5 1019.8 1018.8 0.0
21/06:30am 17.5 14.9 -1.7 27 8.1 ENE 2 7 1 4 1019.7 1018.7 0.0
21/06:00am 17.9 14.3 -2.4 25 8.5 NE 7 11 4 6 1019.1 1018.1 0.0
21/05:30am 18.1 14.6 -2.8 24 8.7 NNE 6 9 3 5 1019.2 1018.2 0.0
21/05:00am 18.9 14.1 -2.7 23 9.1 ENE 13 20 7 11 1019.0 1018.0 0.0
21/04:30am 19.4 14.0 -1.7 24 9.1 E 17 20 9 11 1018.4 1017.3 0.0
21/04:00am 19.8 12.2 -2.5 22 9.5 E 28 37 15 20 1018.3 1017.2 0.0
21/03:30am 19.3 12.0 -2.9 22 9.3 E 26 33 14 18 1018.1 1017.0 0.0
21/03:18am 18.9 12.1 -2.1 24 8.9 E 24 33 13 18 1017.6 1016.6 0.0
21/03:00am 19.8 14.4 -4.5 19 9.9 SE 15 19 8 10 1019.9 1018.9 0.0
21/02:30am 20.2 11.5 -4.8 18 10.2 SE 32 43 17 23 1019.3 1018.3 0.0
21/02:28am 20.0 11.3 -5.0 18 10.1 SE 32 39 17 21 1019.5 1018.5 0.0
21/02:00am 20.0 14.2 -5.0 18 10.1 S 17 20 9 11 1020.5 1019.5 0.0
21/01:30am 20.2 15.5 -4.8 18 10.2 SSW 11 17 6 9 1020.1 1019.1 0.0
21/01:00am 20.4 15.7 -4.7 18 10.3 SSE 11 15 6 8 1019.3 1018.3 0.0
21/12:30am 20.6 15.6 -4.5 18 10.3 SSE 13 17 7 9 1019.4 1018.4 0.0
21/12:00am 20.8 15.0 -4.4 18 10.4 SE 17 24 9 13 1019.7 1018.7 0.0
 
Date/Time
EST
Temp
°C
App
Temp
°C
Dew
Point
Rel
Hum
%
Delta-T
°C
Wind Press
QNH
hPa
Press
MSL
hPa
Rain
since 9 am
mm
Dir
 
Spd
km/h
Gust
km/h
Spd
kts
Gust
kts
20/11:30pm 21.2 14.9 -4.0 18 10.5 SE 20 28 11 15 1019.6 1018.6 0.0
20/11:00pm 21.2 14.2 -3.3 19 10.4 SE 24 41 13 22 1019.5 1018.5 0.0
20/10:30pm 21.6 14.4 -2.3 20 10.4 ESE 26 37 14 20 1019.2 1018.2 0.0
20/10:00pm 22.1 16.0 -2.6 19 10.7 SSE 20 30 11 16 1020.9 1019.9 0.0
20/09:30pm 22.3 16.1 -3.1 18 10.9 SSE 20 30 11 16 1020.7 1019.7 0.0
20/09:00pm 22.4 16.1 -3.8 17 11.1 SSE 20 32 11 17 1020.1 1019.1 0.0
20/08:30pm 22.8 16.5 -4.3 16 11.4 SSE 20 28 11 15 1019.7 1018.7 0.0
20/08:00pm 23.0 16.8 -5.0 15 11.7 S 19 28 10 15 1020.1 1019.1 0.0
20/07:30pm 23.3 17.1 -4.8 15 11.8 S 19 30 10 16 1019.0 1018.0 0.0
20/07:00pm 23.8 17.6 -4.4 15 12.0 S 19 28 10 15 1018.9 1017.9 0.0
20/06:30pm 24.3 18.8 -5.8 13 12.5 S 15 22 8 12 1018.3 1017.2 0.0
20/06:00pm 24.9 18.9 -6.4 12 12.9 S 17 24 9 13 1017.6 1016.6 0.0
20/05:30pm 25.6 19.7 -5.9 12 13.2 S 17 26 9 14 1017.1 1016.1 0.0
20/05:00pm 25.9 19.2 -8.0 10 13.7 SSW 20 28 11 15 1016.7 1015.7 0.0
20/04:30pm 27.0 20.6 -7.2 10 14.2 SSW 19 24 10 13 1016.2 1015.2 0.0
20/04:00pm 27.3 21.3 -6.9 10 14.3 S 17 30 9 16 1015.8 1014.8 0.0
20/03:30pm 27.4 20.4 -6.9 10 14.4 SSW 22 32 12 17 1015.9 1014.9 0.0
20/03:00pm 27.3 21.7 -6.9 10 14.3 S 15 24 8 13 1015.9 1014.9 0.0
20/02:30pm 28.2 21.9 -6.3 10 14.7 S 19 28 10 15 1016.1 1015.1 0.0
20/02:00pm 27.2 21.2 -7.0 10 14.3 SW 17 22 9 12 1016.3 1015.3 0.0
20/01:30pm 26.7 20.2 -7.4 10 14.1 SE 19 26 10 14 1016.9 1015.9 0.0
20/01:00pm 26.7 21.5 -6.2 11 13.9 SE 13 19 7 10 1017.2 1016.2 0.0
20/12:30pm 26.4 21.2 -6.4 11 13.8 S 13 20 7 11 1018.0 1016.9 0.0

Other Formats:

Comma delimited format used in spreadsheet applications
http://www.bom.gov.au/fwo/IDQ60801/IDQ60801.95351.axf

JavaScript Object Notation format (JSON) in row-major order
http://www.bom.gov.au/fwo/IDQ60801/IDQ60801.95351.json